Terminal Aerodrome Forecast
Issued by NWS Jackson, MS

Home | Current Version | Previous Version | Text Only | Print | Product List | Glossary On
Versions: 1 2 3 4 5 6 7 8 9 10 11 12 13 14
000
FTUS44 KJAN 011100 RRA
TAFJAN
TAF
KJAN 011154Z 0112/0212 16011KT P6SM VCSH SCT030 BKN060 OVC090
     FM011500 17011G20KT P6SM VCSH BKN025 BKN035
     FM012000 20010G19KT P6SM -SHRA BKN015 BKN025
      TEMPO 0123/0202 4SM TSRA OVC015CB
     FM020200 29018G27KT P6SM BKN030=

USA.gov is the U.S. government's official web portal to all federal, state and local government web resources and services.